createdAt,value
2022-08-08T00:00:51.037Z,99887.06
2022-08-08T00:02:32.954Z,99886.09
2022-08-08T00:05:17.690Z,99878.00
2022-08-08T00:08:13.724Z,99881.91
2022-08-08T00:10:56.420Z,99871.38
2022-08-08T00:14:15.862Z,99878.44
2022-08-08T00:19:07.168Z,99880.19
2022-08-08T00:21:43.945Z,99880.78
2022-08-08T00:24:24.249Z,99881.09
2022-08-08T00:27:03.223Z,99887.47
2022-08-08T00:29:45.416Z,99877.16
2022-08-08T09:13:46.074Z,100090.56
2022-08-08T09:16:16.305Z,100089.34
2022-08-08T09:18:46.966Z,100090.44
2022-08-08T09:22:01.963Z,100088.72
2022-08-08T09:24:04.815Z,100095.75
2022-08-08T09:26:57.701Z,100102.63
2022-08-08T09:29:25.465Z,100102.44
2022-08-08T09:32:06.031Z,100108.19
2022-08-08T09:34:50.713Z,100105.69
2022-08-08T09:37:57.495Z,100109.25
2022-08-08T09:40:18.940Z,100106.72
2022-08-08T09:42:51.070Z,100095.22
2022-08-08T09:46:01.132Z,100096.78
2022-08-08T09:48:26.153Z,100098.97
2022-08-08T09:50:59.646Z,100092.41
2022-08-08T09:53:58.971Z,100092.78
2022-08-08T09:56:35.181Z,100102.88
2022-08-08T09:59:39.482Z,100102.50
2022-08-08T10:02:02.997Z,100098.84
2022-08-08T10:04:42.145Z,100096.75
2022-08-08T10:07:16.437Z,100094.69
2022-08-08T10:09:59.817Z,100093.47
2022-08-08T10:12:38.668Z,100096.88
2022-08-08T10:15:21.390Z,100098.59
2022-08-08T10:18:05.406Z,100097.81
2022-08-08T10:20:57.958Z,100102.81
2022-08-08T10:23:55.550Z,100109.13
2022-08-08T10:26:57.310Z,100108.81
2022-08-08T10:29:24.945Z,100109.56
2022-08-08T10:32:16.567Z,100107.03
2022-08-08T10:34:58.513Z,100109.47
2022-08-08T10:37:35.619Z,100115.00
2022-08-08T10:40:16.209Z,100114.78
2022-08-08T10:42:45.659Z,100115.91
2022-08-08T10:45:15.767Z,100115.44
2022-08-08T10:47:48.480Z,100122.59
2022-08-08T10:50:20.995Z,100116.59
2022-08-08T10:52:51.448Z,100115.00
2022-08-08T10:55:41.205Z,100110.34
2022-08-08T10:58:09.781Z,100107.84
2022-08-08T11:00:53.117Z,100100.16
2022-08-08T11:04:00.888Z,100099.63
2022-08-08T11:06:34.110Z,100099.38
2022-08-08T11:09:19.724Z,100099.38
2022-08-08T11:12:04.661Z,100093.59
2022-08-08T11:15:02.006Z,100103.22
2022-08-08T11:17:59.965Z,100104.06
2022-08-08T11:20:27.540Z,100096.63
2022-08-08T11:23:05.747Z,100091.44
2022-08-08T11:25:52.324Z,100098.28
2022-08-08T11:28:30.481Z,100100.47
2022-08-08T11:31:00.787Z,100099.13
2022-08-08T11:33:52.994Z,100117.25
2022-08-08T11:36:23.271Z,100109.56
2022-08-08T11:38:57.364Z,100122.16
2022-08-08T11:41:28.063Z,100113.97
2022-08-08T11:44:00.574Z,100110.63
2022-08-08T11:46:31.780Z,100108.47
2022-08-08T11:49:08.626Z,100102.97
2022-08-08T11:51:39.606Z,100100.19
2022-08-08T11:54:31.169Z,100099.94
2022-08-08T11:57:17.099Z,100103.22
2022-08-08T12:00:00.933Z,100106.75
2022-08-08T12:02:55.591Z,100100.69
2022-08-08T12:05:37.689Z,100097.13
2022-08-08T12:08:06.087Z,100095.53
2022-08-08T12:10:34.112Z,100092.53
2022-08-08T12:13:09.833Z,100085.63
2022-08-08T12:15:42.551Z,100089.78
2022-08-08T12:18:26.606Z,100098.25
2022-08-08T12:20:56.586Z,100087.00
2022-08-08T12:23:43.798Z,100079.06
2022-08-08T12:26:28.271Z,100089.19
2022-08-08T12:29:18.240Z,100093.88
2022-08-08T12:31:53.734Z,100094.66
2022-08-08T12:34:43.859Z,100088.63
2022-08-08T12:37:41.173Z,100094.88
2022-08-08T12:40:54.354Z,100100.09
2022-08-08T12:43:46.251Z,100100.16
2022-08-08T12:46:26.258Z,100091.38
2022-08-08T12:49:20.710Z,100098.75
2022-08-08T12:51:50.137Z,100095.75
2022-08-08T12:54:35.883Z,100096.91
2022-08-08T12:57:27.339Z,100087.59
2022-08-08T13:00:05.776Z,100091.19
2022-08-08T13:02:51.169Z,100096.38
2022-08-08T13:05:26.680Z,100096.34
2022-08-08T13:08:21.927Z,100100.75
2022-08-08T13:10:58.073Z,100089.78
2022-08-08T13:13:34.957Z,100088.69
2022-08-08T13:16:21.803Z,100087.59
2022-08-08T13:19:01.634Z,100092.00
2022-08-08T13:21:53.388Z,100097.47
2022-08-08T13:24:40.536Z,100094.75
2022-08-08T13:27:15.071Z,100102.97
2022-08-08T13:29:57.985Z,100099.63
2022-08-08T13:32:28.376Z,100103.16
2022-08-08T13:34:59.478Z,100105.63
2022-08-08T13:38:05.711Z,100092.44
2022-08-08T13:40:26.513Z,100099.28
2022-08-08T13:42:55.830Z,100097.66
2022-08-08T13:45:24.350Z,100098.50
2022-08-08T13:48:03.006Z,100097.13
2022-08-08T13:50:49.150Z,100103.44
2022-08-08T13:53:33.941Z,100103.97
2022-08-08T13:56:11.493Z,100085.88
2022-08-08T13:58:56.122Z,100107.00
2022-08-08T14:01:42.181Z,100098.97
2022-08-08T14:04:24.309Z,100091.78
2022-08-08T14:07:01.557Z,100093.91
2022-08-08T14:10:04.211Z,100106.44
2022-08-08T14:12:30.538Z,100097.66
2022-08-08T14:14:58.914Z,100104.47
2022-08-08T14:17:57.077Z,100099.53
2022-08-08T14:20:41.908Z,100098.41
2022-08-08T14:23:21.409Z,100095.34
2022-08-08T14:26:19.479Z,100099.69
2022-08-08T14:29:05.817Z,100097.47
2022-08-08T14:32:12.632Z,100094.69
2022-08-08T14:34:35.067Z,100104.53
2022-08-08T14:37:08.547Z,100095.16
2022-08-08T14:39:49.399Z,100092.97
2022-08-08T14:42:56.717Z,100095.69
2022-08-08T14:45:33.564Z,100089.91
2022-08-08T14:48:17.626Z,100087.97
2022-08-08T14:51:05.098Z,100089.56
2022-08-08T14:53:55.183Z,100079.94
2022-08-08T14:56:25.659Z,100092.78
2022-08-08T14:58:54.698Z,100074.69
2022-08-08T15:01:37.267Z,100085.59
2022-08-08T15:04:09.483Z,100090.19
2022-08-08T15:06:37.148Z,100086.50
2022-08-08T15:09:04.586Z,100088.88
2022-08-08T15:11:43.301Z,100085.22
2022-08-08T15:14:25.193Z,100087.34
2022-08-08T15:16:55.252Z,100078.03
2022-08-08T15:19:28.153Z,100081.50
2022-08-08T15:21:55.997Z,100085.03
2022-08-08T15:24:31.212Z,100075.13
2022-08-08T15:27:20.170Z,100081.63
2022-08-08T15:29:47.567Z,100088.09
2022-08-08T15:32:20.487Z,100081.50
2022-08-08T15:34:48.434Z,100077.06
2022-08-08T15:37:15.686Z,100081.88
2022-08-08T15:39:44.416Z,100094.63
2022-08-08T15:42:24.010Z,100087.09
2022-08-08T15:45:01.682Z,100088.59
2022-08-08T15:47:31.235Z,100081.91
2022-08-08T15:49:59.032Z,100080.00
2022-08-08T15:52:53.135Z,100091.09
2022-08-08T15:55:20.201Z,100091.59
2022-08-08T15:57:47.458Z,100087.16
2022-08-08T16:00:27.908Z,100080.97
2022-08-08T16:02:58.001Z,100079.47
2022-08-08T16:05:36.051Z,100087.00
2022-08-08T16:08:13.741Z,100082.81
2022-08-08T16:13:05.028Z,100079.75
2022-08-08T16:13:43.596Z,100082.63
2022-08-08T16:16:17.991Z,100081.13
2022-08-08T16:18:53.247Z,100078.66
2022-08-08T16:21:31.859Z,100079.91
2022-08-08T16:24:02.040Z,100077.91
2022-08-08T16:26:35.877Z,100077.81
2022-08-08T16:29:09.102Z,100077.50
2022-08-08T16:31:48.398Z,100075.59
2022-08-08T16:34:19.183Z,100072.19
2022-08-08T16:36:49.302Z,100069.81
2022-08-08T16:39:49.203Z,100077.06
2022-08-08T16:42:05.865Z,100093.31
2022-08-08T16:44:35.264Z,100094.53
2022-08-08T16:47:21.640Z,100093.84
2022-08-08T16:50:01.421Z,100105.81
2022-08-08T16:55:07.107Z,100100.25
2022-08-08T16:55:53.772Z,100105.97
2022-08-08T16:58:14.413Z,100101.81
2022-08-08T17:00:48.413Z,100098.19
2022-08-08T17:03:15.604Z,100097.84
2022-08-08T17:05:45.406Z,100106.25
2022-08-08T17:08:13.905Z,100121.63
2022-08-08T17:10:53.637Z,100122.59
2022-08-08T17:13:40.965Z,100119.41
2022-08-08T17:16:14.970Z,100117.97
2022-08-08T17:18:42.967Z,100120.22
2022-08-08T17:21:13.623Z,100117.97
2022-08-08T17:23:59.001Z,100127.69
2022-08-08T17:26:29.190Z,100123.22
2022-08-08T17:28:58.628Z,100121.19
2022-08-08T17:31:45.418Z,100121.31
2022-08-08T17:34:49.252Z,100125.13
2022-08-08T17:37:06.759Z,100125.34
2022-08-08T17:40:03.748Z,100114.34
2022-08-08T17:42:25.798Z,100122.28
2022-08-08T17:44:53.267Z,100114.00
2022-08-08T17:47:27.401Z,100110.72
2022-08-08T17:50:01.233Z,100113.31
2022-08-08T17:52:34.194Z,100119.69
2022-08-08T17:55:05.739Z,100125.63
2022-08-08T17:57:58.685Z,100128.34
2022-08-08T18:00:30.660Z,100122.28
2022-08-08T18:03:08.627Z,100121.72
2022-08-08T18:05:48.889Z,100121.38
2022-08-08T18:08:24.852Z,100121.59
2022-08-08T18:11:16.206Z,100124.19
2022-08-08T18:13:47.508Z,100113.22
2022-08-08T18:16:20.737Z,100113.22
2022-08-08T18:18:56.259Z,100113.09
2022-08-08T18:21:59.590Z,100118.78
2022-08-08T18:24:21.777Z,100130.47
2022-08-08T18:26:54.561Z,100124.78
2022-08-08T18:29:33.145Z,100110.16
2022-08-08T18:32:07.502Z,100116.75
2022-08-08T18:34:36.462Z,100125.25
2022-08-08T18:37:06.449Z,100127.97
2022-08-08T18:39:36.524Z,100132.59
2022-08-08T18:42:13.755Z,100129.88
2022-08-08T18:44:42.483Z,100130.09
2022-08-08T18:47:27.914Z,100123.50
2022-08-08T18:49:58.430Z,100120.56
2022-08-08T18:52:28.115Z,100130.56
2022-08-08T18:55:00.685Z,100113.22
2022-08-08T18:57:45.080Z,100108.94
2022-08-08T19:00:21.450Z,100104.78
2022-08-08T19:02:55.396Z,100100.28
2022-08-08T19:05:30.454Z,100097.47
2022-08-08T19:08:25.339Z,100110.69
2022-08-08T19:11:01.687Z,100110.91
2022-08-08T19:13:52.390Z,100111.38
2022-08-08T19:16:20.668Z,100107.50
2022-08-08T19:19:01.916Z,100116.47
2022-08-08T19:21:33.226Z,100124.41
2022-08-08T19:24:05.560Z,100118.72
2022-08-08T19:26:38.152Z,100120.13
2022-08-08T19:29:23.570Z,100108.44
2022-08-08T19:31:53.569Z,100105.47
2022-08-08T19:34:36.616Z,100107.38
2022-08-08T19:37:16.637Z,100105.59
2022-08-08T19:39:45.597Z,100098.53
2022-08-08T19:42:13.779Z,100105.25
2022-08-08T19:44:43.388Z,100098.38
2022-08-08T19:47:24.565Z,100101.81
2022-08-08T19:49:59.364Z,100098.50
2022-08-08T19:52:34.963Z,100094.72
2022-08-08T19:55:11.125Z,100092.00
2022-08-08T19:57:48.587Z,100091.41
2022-08-08T20:00:29.977Z,100091.75
2022-08-08T20:03:14.245Z,100083.00
2022-08-08T20:06:14.360Z,100077.44
2022-08-08T20:08:32.201Z,100078.97
2022-08-08T20:11:03.405Z,100073.28
2022-08-08T20:14:32.836Z,100073.38
2022-08-08T20:16:19.642Z,100086.72
2022-08-08T20:18:52.891Z,100083.41
2022-08-08T20:21:24.993Z,100085.88
2022-08-08T20:24:20.282Z,100087.41
2022-08-08T20:26:49.451Z,100094.50
2022-08-08T20:30:06.215Z,100099.25
2022-08-08T20:33:19.739Z,100085.44
2022-08-08T20:35:57.308Z,100081.75
2022-08-08T20:38:32.023Z,100080.56
2022-08-08T20:41:12.114Z,100091.88
2022-08-08T20:43:49.468Z,100103.19
2022-08-08T20:46:21.208Z,100099.41
2022-08-08T20:48:58.596Z,100100.47
2022-08-08T20:51:32.404Z,100098.19
2022-08-08T20:54:09.526Z,100104.25
2022-08-08T20:57:04.691Z,100104.84
2022-08-08T20:59:30.685Z,100091.06
2022-08-08T21:02:07.521Z,100090.50
2022-08-08T21:04:37.085Z,100084.47
2022-08-08T21:07:08.163Z,100082.47
2022-08-08T21:10:01.983Z,100085.41
2022-08-08T21:12:35.709Z,100090.47
2022-08-08T21:15:10.513Z,100097.41
2022-08-08T21:17:37.766Z,100094.69
2022-08-08T21:20:05.988Z,100102.16
2022-08-08T21:22:33.999Z,100108.44
2022-08-08T21:25:02.152Z,100129.88
2022-08-08T21:28:05.679Z,100146.88
2022-08-08T21:30:22.118Z,100183.78
2022-08-08T21:32:53.552Z,100193.81
2022-08-08T21:36:18.416Z,100206.50
2022-08-08T21:38:18.169Z,100190.22
2022-08-08T21:40:56.073Z,100185.97
2022-08-08T21:43:33.918Z,100193.50
2022-08-08T21:48:04.711Z,100195.63
2022-08-08T21:48:53.450Z,100200.06
2022-08-08T21:52:09.818Z,100199.47
2022-08-08T21:54:36.227Z,100212.28
2022-08-08T21:56:59.391Z,100193.53
2022-08-08T21:59:28.461Z,100168.50
2022-08-08T22:02:15.831Z,100174.13
2022-08-08T22:04:43.364Z,100179.06
2022-08-08T22:07:10.725Z,100183.88
2022-08-08T22:09:41.327Z,100168.06
2022-08-08T22:12:16.960Z,100148.09
2022-08-08T22:14:52.418Z,100142.28
2022-08-08T22:17:20.275Z,100137.69
2022-08-08T22:20:11.478Z,100116.22
2022-08-08T22:22:38.535Z,100091.41
2022-08-08T22:25:19.844Z,100086.84
2022-08-08T22:28:04.318Z,100096.94
2022-08-08T22:30:41.193Z,100090.31
2022-08-08T22:33:22.228Z,100089.47
2022-08-08T22:36:05.360Z,100087.44
2022-08-08T22:38:47.975Z,100091.66
2022-08-08T22:41:21.779Z,100108.38
2022-08-08T22:44:02.053Z,100111.38
2022-08-08T22:46:33.153Z,100116.00
2022-08-08T22:49:01.371Z,100108.94
2022-08-08T22:51:29.768Z,100116.50
2022-08-08T23:06:28.023Z,100094.75
2022-08-08T23:09:55.290Z,100112.25
2022-08-08T23:13:53.538Z,100108.34
2022-08-08T23:17:17.693Z,100113.00
2022-08-08T23:20:27.280Z,100134.91
2022-08-08T23:28:08.078Z,100137.88
2022-08-08T23:31:05.129Z,100153.66
2022-08-08T23:34:17.187Z,100156.75
2022-08-08T23:37:11.622Z,100169.84
2022-08-08T23:39:41.896Z,100174.03
2022-08-08T23:42:16.818Z,100169.66
2022-08-08T23:44:45.114Z,100170.94
2022-08-08T23:49:04.616Z,100169.09
2022-08-08T23:50:03.087Z,100159.72
2022-08-08T23:52:33.335Z,100144.09
2022-08-08T23:55:14.464Z,100131.97
2022-08-08T23:57:52.294Z,100115.13
